createdAt,value
2023-01-18T00:08:52.299Z,26.708984375
2023-01-18T00:18:52.249Z,26.0009765625
2023-01-18T00:28:52.186Z,27.490234375
2023-01-18T00:38:52.207Z,25.48828125
2023-01-18T00:48:52.004Z,27.001953125
2023-01-18T00:58:52.001Z,26.0986328125
2023-01-18T01:08:51.898Z,26.2939453125
2023-01-18T01:18:51.813Z,25.6103515625
2023-01-18T01:28:51.750Z,26.0009765625
2023-01-18T01:38:51.763Z,27.197265625
2023-01-18T01:48:51.574Z,25.7080078125
2023-01-18T01:58:52.538Z,25.9033203125
2023-01-18T02:08:51.470Z,28.90625
2023-01-18T02:18:51.403Z,25
2023-01-18T02:28:51.296Z,24.30419921875
2023-01-18T02:38:51.358Z,25.8056640625
2023-01-18T02:48:51.133Z,27.001953125
2023-01-18T02:58:51.109Z,25.48828125
2023-01-18T03:08:51.010Z,23.9013671875
2023-01-18T03:18:50.943Z,24.90234375
2023-01-18T03:28:50.955Z,24.30419921875
2023-01-18T03:38:50.796Z,23.49853515625
2023-01-18T03:48:50.710Z,23.8037109375
2023-01-18T03:58:50.655Z,23.30322265625
2023-01-18T04:08:50.582Z,22.998046875
2023-01-18T04:18:50.491Z,22.20458984375
2023-01-18T04:28:50.445Z,22.30224609375
2023-01-18T04:38:50.366Z,22.30224609375
2023-01-18T04:48:50.274Z,21.7041015625
2023-01-18T04:58:50.218Z,21.8017578125
2023-01-18T05:08:50.145Z,21.8017578125
2023-01-18T05:18:50.148Z,21.8017578125
2023-01-18T05:28:50.001Z,21.59423828125
2023-01-18T05:38:49.920Z,21.39892578125
2023-01-18T05:48:49.861Z,21.10595703125
2023-01-18T05:58:49.749Z,20.99609375
2023-01-18T06:08:49.684Z,20.703125
2023-01-18T06:18:49.602Z,20.8984375
2023-01-18T06:28:49.532Z,20.60546875
2023-01-18T06:38:49.503Z,20.30029296875
2023-01-18T06:48:50.396Z,20.39794921875
2023-01-18T06:58:49.318Z,20.10498046875
2023-01-18T07:08:49.287Z,19.7998046875
2023-01-18T07:18:49.183Z,20.10498046875
2023-01-18T07:28:49.128Z,19.7021484375
2023-01-18T07:38:49.040Z,19.20166015625
2023-01-18T07:48:48.955Z,19.20166015625
2023-01-18T07:58:48.891Z,19.20166015625
2023-01-18T08:08:48.828Z,19.10400390625
2023-01-18T08:18:48.745Z,18.701171875
2023-01-18T08:28:48.662Z,18.701171875
2023-01-18T08:38:48.589Z,18.505859375
2023-01-18T08:48:48.673Z,18.39599609375
2023-01-18T08:58:48.543Z,18.29833984375
2023-01-18T09:08:48.368Z,17.8955078125
2023-01-18T09:18:48.297Z,17.7978515625
2023-01-18T09:28:48.331Z,17.5048828125
2023-01-18T09:38:48.179Z,17.29736328125
2023-01-18T09:48:48.090Z,16.89453125
2023-01-18T09:58:48.019Z,16.796875
2023-01-18T10:08:48.005Z,17.00439453125
2023-01-18T10:18:47.980Z,17.19970703125
2023-01-18T10:28:47.780Z,17.00439453125
2023-01-18T10:38:47.710Z,16.796875
2023-01-18T10:48:47.675Z,16.69921875
2023-01-18T10:58:47.583Z,16.89453125
2023-01-18T11:08:47.523Z,17.00439453125
2023-01-18T11:18:47.456Z,16.796875
2023-01-18T11:28:47.357Z,16.796875
2023-01-18T11:38:47.274Z,16.39404296875
2023-01-18T11:48:47.242Z,16.29638671875
2023-01-18T11:58:47.231Z,16.796875
2023-01-18T12:08:47.079Z,16.796875
2023-01-18T12:18:47.030Z,16.796875
2023-01-18T12:28:46.929Z,16.39404296875
2023-01-18T12:38:46.880Z,16.00341796875
2023-01-18T12:48:46.819Z,15.6982421875
2023-01-18T12:58:46.719Z,15.4052734375
2023-01-18T13:08:46.660Z,15.5029296875
2023-01-18T13:18:46.594Z,15.29541015625
2023-01-18T13:28:46.487Z,15.29541015625
2023-01-18T13:38:46.413Z,15.29541015625
2023-01-18T13:48:46.515Z,15.10009765625
2023-01-18T13:58:46.305Z,15.00244140625
2023-01-18T14:08:46.222Z,14.794921875
2023-01-18T14:18:46.120Z,14.794921875
2023-01-18T14:28:46.055Z,14.794921875
2023-01-18T14:38:45.984Z,14.599609375
2023-01-18T14:48:45.939Z,14.599609375
2023-01-18T14:58:45.876Z,14.404296875
2023-01-18T15:08:45.811Z,14.29443359375
2023-01-18T15:18:45.693Z,14.29443359375
2023-01-18T15:28:45.619Z,14.19677734375
2023-01-18T15:38:45.587Z,14.09912109375
2023-01-18T15:48:45.473Z,14.09912109375
2023-01-18T15:58:45.412Z,14.09912109375
2023-01-18T16:08:45.361Z,14.09912109375
2023-01-18T16:18:45.281Z,14.00146484375
2023-01-18T16:28:45.223Z,13.90380859375
2023-01-18T16:38:45.145Z,13.7939453125
2023-01-18T16:48:45.056Z,13.6962890625
2023-01-18T16:58:45.008Z,13.5986328125
2023-01-18T17:08:44.891Z,13.5986328125
2023-01-18T17:18:44.863Z,13.5986328125
2023-01-18T17:28:44.792Z,13.5009765625
2023-01-18T17:38:44.698Z,13.5009765625
2023-01-18T17:48:44.679Z,13.5009765625
2023-01-18T17:58:44.596Z,13.4033203125
2023-01-18T18:08:44.470Z,13.5986328125
2023-01-18T18:18:44.538Z,13.5986328125
2023-01-18T18:28:44.331Z,13.5986328125
2023-01-18T18:38:44.284Z,13.5986328125
2023-01-18T18:48:44.194Z,13.6962890625
2023-01-18T18:58:44.160Z,13.6962890625
2023-01-18T19:08:44.071Z,13.6962890625
2023-01-18T19:18:44.137Z,13.7939453125
2023-01-18T19:28:43.913Z,13.90380859375
2023-01-18T19:38:46.151Z,14.00146484375
2023-01-18T19:48:43.763Z,14.19677734375
2023-01-18T19:58:43.710Z,14.501953125
2023-01-18T20:08:43.639Z,15.19775390625
2023-01-18T20:18:43.527Z,15.90576171875
2023-01-18T20:28:43.476Z,16.19873046875
2023-01-18T20:38:43.426Z,16.89453125
2023-01-18T20:48:43.355Z,17.6025390625
2023-01-18T20:58:43.249Z,18.896484375
2023-01-18T21:08:43.201Z,18.505859375
2023-01-18T21:18:43.097Z,19.6044921875
2023-01-18T21:28:43.056Z,20.10498046875
2023-01-18T21:38:42.940Z,21.49658203125
2023-01-18T21:48:42.877Z,22.0947265625
2023-01-18T21:58:42.898Z,22.20458984375
2023-01-18T22:08:42.732Z,21.39892578125
2023-01-18T22:18:42.657Z,24.0966796875
2023-01-18T22:28:42.584Z,23.59619140625
2023-01-18T22:38:42.510Z,25.1953125
2023-01-18T22:48:42.480Z,26.3916015625
2023-01-18T22:58:42.463Z,26.1962890625
2023-01-18T23:08:42.322Z,27.490234375
2023-01-18T23:18:42.217Z,28.1005859375
2023-01-18T23:28:42.146Z,25.9033203125
2023-01-18T23:38:42.096Z,26.0986328125
2023-01-18T23:48:42.035Z,26.904296875
2023-01-18T23:58:42.062Z,28.3935546875
